createdAt,value
2022-11-18T00:01:23.320Z,42.08
2022-11-18T00:03:52.300Z,42.67
2022-11-18T00:06:24.358Z,42.15
2022-11-18T00:08:55.492Z,42.10
2022-11-18T00:11:44.532Z,44.33
2022-11-18T00:14:20.736Z,42.55
2022-11-18T00:17:02.926Z,42.88
2022-11-18T00:19:39.749Z,42.83
2022-11-18T00:22:12.499Z,41.97
2022-11-18T00:24:39.796Z,45.63
2022-11-18T00:27:06.990Z,45.28
2022-11-18T00:29:34.139Z,45.50
2022-11-18T00:32:01.762Z,46.55
2022-11-18T00:34:29.024Z,46.78
2022-11-18T00:36:56.265Z,47.38
2022-11-18T00:39:23.611Z,45.08
2022-11-18T00:42:09.856Z,42.95
2022-11-18T00:44:37.153Z,44.10
2022-11-18T00:47:05.143Z,44.13
2022-11-18T00:49:32.493Z,40.83
2022-11-18T00:51:59.828Z,41.17
2022-11-18T00:54:27.015Z,41.83
2022-11-18T00:56:54.320Z,38.67
2022-11-18T00:59:21.781Z,39.90
2022-11-18T01:01:49.331Z,41.63
2022-11-18T01:04:17.205Z,43.20
2022-11-18T01:06:44.513Z,43.70
2022-11-18T01:09:11.730Z,41.78
2022-11-18T01:11:57.685Z,41.88
2022-11-18T01:14:26.223Z,42.35
2022-11-18T01:16:57.838Z,41.22
2022-11-18T01:19:26.091Z,39.80
2022-11-18T01:21:53.884Z,40.70
2022-11-18T01:24:21.260Z,39.05
2022-11-18T01:26:48.657Z,36.55
2022-11-18T01:29:17.423Z,37.88
2022-11-18T01:32:02.074Z,36.38
2022-11-18T01:34:32.280Z,37.17
2022-11-18T01:36:59.545Z,35.53
2022-11-18T01:39:26.783Z,36.50
2022-11-18T01:41:54.045Z,36.92
2022-11-18T01:44:59.631Z,38.40
2022-11-18T01:47:39.029Z,36.85
2022-11-18T01:50:07.218Z,34.85
2022-11-18T01:52:35.828Z,33.33
2022-11-18T01:55:18.774Z,34.05
2022-11-18T01:57:49.922Z,34.30
2022-11-18T02:00:17.798Z,35.67
2022-11-18T02:02:45.985Z,35.20
2022-11-18T02:05:14.613Z,34.83
2022-11-18T02:07:43.542Z,33.25
2022-11-18T02:10:25.159Z,32.88
2022-11-18T02:12:54.850Z,34.13
2022-11-18T02:15:55.582Z,34.28
2022-11-18T02:18:49.461Z,36.47
2022-11-18T02:21:55.680Z,36.70
2022-11-18T02:25:16.281Z,37.95
2022-11-18T02:28:16.613Z,36.10
2022-11-18T02:31:20.684Z,35.92
2022-11-18T02:34:08.013Z,34.72
2022-11-18T02:37:17.408Z,34.17
2022-11-18T02:40:26.417Z,34.58
2022-11-18T02:43:17.244Z,34.15
2022-11-18T02:45:50.149Z,33.70
2022-11-18T02:48:19.274Z,33.88
2022-11-18T02:50:50.411Z,33.70
2022-11-18T02:53:21.725Z,32.53
2022-11-18T02:55:50.207Z,33.28
2022-11-18T02:58:20.942Z,33.90
2022-11-18T03:01:01.726Z,34.35
2022-11-18T03:03:36.255Z,33.88
2022-11-18T03:06:24.070Z,35.63
2022-11-18T03:09:05.194Z,34.72
2022-11-18T03:11:50.732Z,33.22
2022-11-18T03:14:34.319Z,34.22
2022-11-18T03:17:14.045Z,34.45
2022-11-18T03:19:59.453Z,34.92
2022-11-18T03:23:09.701Z,35.25
2022-11-18T03:26:05.984Z,35.35
2022-11-18T03:28:40.703Z,34.95
2022-11-18T03:32:03.838Z,33.67
2022-11-18T03:34:45.385Z,35.67
2022-11-18T03:37:16.633Z,34.60
2022-11-18T03:39:53.481Z,34.58
2022-11-18T03:42:43.232Z,34.92
2022-11-18T03:45:47.029Z,36.15
2022-11-18T03:48:32.790Z,35.67
2022-11-18T03:51:10.843Z,35.65
2022-11-18T03:53:45.606Z,36.72
2022-11-18T03:56:24.121Z,36.50
2022-11-18T03:59:21.461Z,35.17
2022-11-18T04:01:58.071Z,34.47
2022-11-18T04:04:26.890Z,37.08
2022-11-18T04:07:17.317Z,35.65
2022-11-18T04:10:04.376Z,34.78
2022-11-18T04:12:38.294Z,35.28
2022-11-18T04:15:06.518Z,32.00
2022-11-18T04:17:33.820Z,35.85
2022-11-18T04:20:01.185Z,35.60
2022-11-18T04:22:28.446Z,35.85
2022-11-18T04:24:55.710Z,34.08
2022-11-18T04:27:22.902Z,34.83
2022-11-18T04:29:50.201Z,33.00
2022-11-18T04:32:17.416Z,33.35
2022-11-18T04:34:44.663Z,33.20
2022-11-18T04:37:11.882Z,32.47
2022-11-18T04:39:39.164Z,34.63
2022-11-18T04:42:06.575Z,33.92
2022-11-18T04:44:34.897Z,34.58
2022-11-18T04:47:05.497Z,36.33
2022-11-18T04:49:35.248Z,36.13
2022-11-18T04:52:03.365Z,37.00
2022-11-18T04:54:30.793Z,34.95
2022-11-18T04:56:58.246Z,35.75
2022-11-18T04:59:29.291Z,36.17
2022-11-18T05:01:59.321Z,35.45
2022-11-18T05:04:31.554Z,35.47
2022-11-18T05:07:01.936Z,34.35
2022-11-18T05:09:31.985Z,35.53
2022-11-18T05:12:19.704Z,36.53
2022-11-18T05:14:50.394Z,33.95
2022-11-18T05:17:19.134Z,34.00
2022-11-18T05:19:46.279Z,33.58
2022-11-18T05:22:15.562Z,35.38
2022-11-18T05:24:42.784Z,36.10
2022-11-18T05:27:10.042Z,36.70
2022-11-18T05:29:37.222Z,36.78
2022-11-18T05:32:05.296Z,38.83
2022-11-18T05:34:32.495Z,37.88
2022-11-18T05:37:00.647Z,40.05
2022-11-18T05:39:27.924Z,39.28
2022-11-18T05:42:13.517Z,38.67
2022-11-18T05:44:40.666Z,39.28
2022-11-18T05:47:08.041Z,40.58
2022-11-18T05:49:35.406Z,40.03
2022-11-18T05:52:02.821Z,44.30
2022-11-18T05:54:30.281Z,41.88
2022-11-18T05:56:57.590Z,42.20
2022-11-18T05:59:24.764Z,45.47
2022-11-18T06:02:08.692Z,45.70
2022-11-18T06:04:47.066Z,44.88
2022-11-18T06:07:53.455Z,43.30
2022-11-18T06:10:32.234Z,44.95
2022-11-18T06:13:05.593Z,45.03
2022-11-18T06:15:41.009Z,48.00
2022-11-18T06:18:19.962Z,45.95
2022-11-18T06:20:47.775Z,44.55
2022-11-18T06:23:15.461Z,46.00
2022-11-18T06:25:43.252Z,48.75
2022-11-18T06:28:14.285Z,46.53
2022-11-18T06:30:43.162Z,44.03
2022-11-18T06:33:10.377Z,43.60
2022-11-18T06:35:37.623Z,44.80
2022-11-18T06:38:04.946Z,43.25
2022-11-18T06:40:34.968Z,44.40
2022-11-18T06:43:29.233Z,41.58
2022-11-18T06:46:23.976Z,41.50
2022-11-18T06:48:51.787Z,37.00
2022-11-18T06:51:19.694Z,37.13
2022-11-18T06:53:47.048Z,35.03
2022-11-18T06:56:18.234Z,37.20
2022-11-18T06:58:45.754Z,34.55
2022-11-18T07:01:29.627Z,32.97
2022-11-18T07:04:00.017Z,33.22
2022-11-18T07:06:34.111Z,35.75
2022-11-18T07:09:06.012Z,33.92
2022-11-18T07:11:34.275Z,34.35
2022-11-18T07:14:01.584Z,34.17
2022-11-18T07:16:29.484Z,33.33
2022-11-18T07:18:57.175Z,35.20
2022-11-18T07:21:28.504Z,35.67
2022-11-18T07:23:56.998Z,33.50
2022-11-18T07:26:24.423Z,31.73
2022-11-18T07:28:51.979Z,35.50
2022-11-18T07:31:21.122Z,33.72
2022-11-18T07:33:49.721Z,32.97
2022-11-18T07:36:22.086Z,36.37
2022-11-18T07:38:50.081Z,35.08
2022-11-18T07:41:24.028Z,35.90
2022-11-18T07:43:59.033Z,36.58
2022-11-18T07:46:34.409Z,38.50
2022-11-18T07:49:06.444Z,36.05
2022-11-18T07:51:38.383Z,36.53
2022-11-18T07:54:16.993Z,34.95
2022-11-18T07:56:44.641Z,33.00
2022-11-18T07:59:12.089Z,35.17
2022-11-18T08:01:39.423Z,37.10
2022-11-18T08:04:11.677Z,34.65
2022-11-18T08:06:39.920Z,36.95
2022-11-18T08:09:08.592Z,35.78
2022-11-18T08:11:36.628Z,37.05
2022-11-18T08:14:04.274Z,36.85
2022-11-18T08:16:31.545Z,34.30
2022-11-18T08:19:00.941Z,33.55
2022-11-18T08:21:28.448Z,33.72
2022-11-18T08:23:58.337Z,33.33
2022-11-18T08:26:27.364Z,34.78
2022-11-18T08:28:55.147Z,33.33
2022-11-18T08:31:30.409Z,35.55
2022-11-18T08:34:03.006Z,34.70
2022-11-18T08:36:35.808Z,35.08
2022-11-18T08:39:07.954Z,33.55
2022-11-18T08:41:42.797Z,30.88
2022-11-18T08:44:16.678Z,35.57
2022-11-18T08:46:45.744Z,35.88
2022-11-18T08:49:12.989Z,35.10
2022-11-18T08:51:40.140Z,35.30
2022-11-18T08:54:07.344Z,35.55
2022-11-18T08:56:34.574Z,38.13
2022-11-18T08:59:01.900Z,37.20
2022-11-18T09:01:29.205Z,40.05
2022-11-18T09:03:57.681Z,38.92
2022-11-18T09:06:25.329Z,37.47
2022-11-18T09:08:54.136Z,37.70
2022-11-18T09:11:27.498Z,35.45
2022-11-18T09:16:45.505Z,35.53
2022-11-18T09:19:45.030Z,35.13
2022-11-18T09:22:00.186Z,30.20
2022-11-18T09:24:27.419Z,34.60
2022-11-18T09:26:54.673Z,33.85
2022-11-18T09:29:25.858Z,34.28
2022-11-18T09:31:54.734Z,33.30
2022-11-18T09:34:23.402Z,32.33
2022-11-18T09:36:51.253Z,29.83
2022-11-18T09:39:18.848Z,30.10
2022-11-18T09:42:30.932Z,30.38
2022-11-18T09:45:38.876Z,29.30
2022-11-18T09:49:03.523Z,27.52
2022-11-18T09:51:39.252Z,30.98
2022-11-18T09:56:41.615Z,27.65
2022-11-18T09:59:14.215Z,28.95
2022-11-18T10:01:42.750Z,27.33
2022-11-18T10:04:24.123Z,28.08
2022-11-18T10:06:51.366Z,25.08
2022-11-18T10:09:41.353Z,27.50
2022-11-18T10:12:41.993Z,27.00
2022-11-18T10:15:44.410Z,27.35
2022-11-18T10:19:01.157Z,21.60
2022-11-18T10:22:18.256Z,20.63
2022-11-18T10:24:55.922Z,19.83
2022-11-18T10:27:35.453Z,19.80
2022-11-18T10:30:02.954Z,19.85
2022-11-18T10:32:30.175Z,21.80
2022-11-18T10:34:59.456Z,21.33
2022-11-18T10:38:05.797Z,19.58
2022-11-18T10:40:28.394Z,20.15
2022-11-18T10:42:56.071Z,17.50
2022-11-18T10:45:23.056Z,19.20
2022-11-18T10:48:28.593Z,18.95
2022-11-18T10:50:56.228Z,21.00
2022-11-18T10:53:37.031Z,20.25
2022-11-18T10:56:11.937Z,19.88
2022-11-18T10:58:50.276Z,19.63
2022-11-18T11:01:26.669Z,17.67
2022-11-18T11:04:22.506Z,18.70
2022-11-18T11:06:50.011Z,17.15
2022-11-18T11:09:30.754Z,16.42
2022-11-18T11:12:13.850Z,16.40
2022-11-18T11:14:54.534Z,17.27
2022-11-18T11:17:38.794Z,17.77
2022-11-18T11:20:26.655Z,17.58
2022-11-18T11:22:55.735Z,16.67
2022-11-18T11:29:12.909Z,16.25
2022-11-18T11:31:59.944Z,17.13
2022-11-18T11:35:27.313Z,15.73
2022-11-18T11:38:23.014Z,15.73
2022-11-18T11:41:23.308Z,17.92
2022-11-18T11:44:18.399Z,15.63
2022-11-18T11:47:49.964Z,15.00
2022-11-18T11:51:03.262Z,15.27
2022-11-18T11:54:38.155Z,14.63
2022-11-18T11:57:39.440Z,16.40
2022-11-18T12:00:14.412Z,16.05
2022-11-18T12:03:01.591Z,15.73
2022-11-18T12:05:39.429Z,15.93
2022-11-18T12:08:31.172Z,17.58
2022-11-18T12:11:31.770Z,15.45
2022-11-18T12:14:28.423Z,17.20
2022-11-18T12:17:13.263Z,13.32
2022-11-18T12:19:40.558Z,13.60
2022-11-18T12:22:07.803Z,14.88
2022-11-18T12:24:42.407Z,15.02
2022-11-18T12:27:39.828Z,15.57
2022-11-18T12:30:18.865Z,14.57
2022-11-18T12:32:46.873Z,14.27
2022-11-18T12:35:14.013Z,15.38
2022-11-18T12:37:53.198Z,20.17
2022-11-18T12:40:50.639Z,14.35
2022-11-18T12:43:46.000Z,15.65
2022-11-18T12:46:40.121Z,15.55
2022-11-18T12:49:23.268Z,14.98
2022-11-18T12:51:52.568Z,17.02
2022-11-18T12:54:45.329Z,17.02
2022-11-18T12:57:31.077Z,17.05
2022-11-18T13:00:17.711Z,17.63
2022-11-18T13:02:57.174Z,16.73
2022-11-18T13:05:31.080Z,16.67
2022-11-18T13:08:14.182Z,16.65
2022-11-18T13:11:17.581Z,14.38
2022-11-18T13:13:46.219Z,14.75
2022-11-18T13:16:43.234Z,16.50
2022-11-18T13:19:21.551Z,16.73
2022-11-18T13:22:15.222Z,16.55
2022-11-18T13:24:53.024Z,16.15
2022-11-18T13:28:05.662Z,15.85
2022-11-18T13:30:36.355Z,14.63
2022-11-18T13:33:03.739Z,15.60
2022-11-18T13:35:30.963Z,15.88
2022-11-18T13:38:02.390Z,15.20
2022-11-18T13:41:04.151Z,14.98
2022-11-18T13:43:33.503Z,15.77
2022-11-18T13:46:14.294Z,15.65
2022-11-18T13:48:54.854Z,14.60
2022-11-18T13:51:23.381Z,14.43
2022-11-18T13:53:50.852Z,13.60
2022-11-18T13:56:34.934Z,14.85
2022-11-18T13:59:16.743Z,14.43
2022-11-18T14:01:47.304Z,13.77
2022-11-18T14:04:31.679Z,13.75
2022-11-18T14:07:32.642Z,13.70
2022-11-18T14:10:08.500Z,13.10
2022-11-18T14:12:36.915Z,14.23
2022-11-18T14:15:37.897Z,13.27
2022-11-18T14:18:32.901Z,13.25
2022-11-18T14:21:02.835Z,14.43
2022-11-18T14:23:36.492Z,14.40
2022-11-18T14:26:06.674Z,14.07
2022-11-18T14:28:38.202Z,14.35
2022-11-18T14:31:25.660Z,15.75
2022-11-18T14:34:24.136Z,13.93
2022-11-18T14:36:53.547Z,14.43
2022-11-18T14:39:27.489Z,16.30
2022-11-18T14:41:59.820Z,14.02
2022-11-18T14:44:28.670Z,16.27
2022-11-18T14:47:27.695Z,14.77
2022-11-18T14:49:54.962Z,16.00
2022-11-18T14:52:22.181Z,15.88
2022-11-18T14:54:49.391Z,14.85
2022-11-18T14:57:18.902Z,16.10
2022-11-18T14:59:46.208Z,15.68
2022-11-18T15:02:17.380Z,15.13
2022-11-18T15:04:44.977Z,14.38
2022-11-18T15:07:23.125Z,14.80
2022-11-18T15:09:51.231Z,14.73
2022-11-18T15:12:18.420Z,14.50
2022-11-18T15:14:45.638Z,14.77
2022-11-18T15:17:13.643Z,14.05
2022-11-18T15:19:41.575Z,16.60
2022-11-18T15:22:09.487Z,17.45
2022-11-18T15:24:36.740Z,20.80
2022-11-18T15:27:05.256Z,19.63
2022-11-18T15:29:32.622Z,20.25
2022-11-18T15:32:00.073Z,19.25
2022-11-18T15:34:27.343Z,18.05
2022-11-18T15:36:54.476Z,17.50
2022-11-18T15:39:21.699Z,16.08
2022-11-18T15:41:49.188Z,16.83
2022-11-18T15:44:16.935Z,16.05
2022-11-18T15:46:48.119Z,16.73
2022-11-18T15:49:17.466Z,15.30
2022-11-18T15:51:44.766Z,17.10
2022-11-18T15:54:11.981Z,16.80
2022-11-18T15:56:39.866Z,18.10
2022-11-18T15:59:13.756Z,17.83
2022-11-18T16:01:49.221Z,17.25
2022-11-18T16:04:19.284Z,20.52
2022-11-18T16:06:47.686Z,18.73
2022-11-18T16:09:17.905Z,21.90
2022-11-18T16:12:04.271Z,21.63
2022-11-18T16:16:58.645Z,22.55
2022-11-18T16:19:27.184Z,21.65
2022-11-18T16:21:56.991Z,22.08
2022-11-18T16:24:29.670Z,22.38
2022-11-18T16:26:57.761Z,21.90
2022-11-18T16:29:25.346Z,22.20
2022-11-18T16:31:54.151Z,23.52
2022-11-18T16:34:27.966Z,21.65
2022-11-18T16:37:01.111Z,22.67
2022-11-18T16:39:29.345Z,22.75
2022-11-18T16:42:08.361Z,23.13
2022-11-18T16:44:37.524Z,23.48
2022-11-18T16:47:13.934Z,22.92
2022-11-18T16:49:43.032Z,23.23
2022-11-18T16:52:10.471Z,23.20
2022-11-18T16:54:44.293Z,23.52
2022-11-18T16:57:13.151Z,23.08
2022-11-18T16:59:40.505Z,23.85
2022-11-18T17:02:11.506Z,24.30
2022-11-18T17:04:38.766Z,24.42
2022-11-18T17:07:06.583Z,23.83
2022-11-18T17:09:33.925Z,25.58
2022-11-18T17:12:03.149Z,26.02
2022-11-18T17:14:30.887Z,25.25
2022-11-18T17:16:58.742Z,23.73
2022-11-18T17:19:26.556Z,23.73
2022-11-18T17:21:54.091Z,23.65
2022-11-18T17:24:24.302Z,22.35
2022-11-18T17:26:52.774Z,22.88
2022-11-18T17:29:20.843Z,21.33
2022-11-18T17:31:48.336Z,22.55
2022-11-18T17:34:16.479Z,21.58
2022-11-18T17:36:44.130Z,20.40
2022-11-18T17:39:13.270Z,21.00
2022-11-18T17:41:59.327Z,20.65
2022-11-18T17:44:29.127Z,21.52
2022-11-18T17:46:56.653Z,20.65
2022-11-18T17:49:23.971Z,19.77
2022-11-18T17:51:51.673Z,20.58
2022-11-18T17:54:20.718Z,20.63
2022-11-18T17:56:49.823Z,18.75
2022-11-18T17:59:17.607Z,19.75
2022-11-18T18:01:46.154Z,18.77
2022-11-18T18:04:14.592Z,19.25
2022-11-18T18:06:41.804Z,17.73
2022-11-18T18:09:08.973Z,18.15
2022-11-18T18:11:36.247Z,19.60
2022-11-18T18:14:12.786Z,18.50
2022-11-18T18:16:50.888Z,18.30
2022-11-18T18:19:21.874Z,17.60
2022-11-18T18:21:49.284Z,17.88
2022-11-18T18:24:19.506Z,18.55
2022-11-18T18:26:47.404Z,16.98
2022-11-18T18:29:14.672Z,17.83
2022-11-18T18:31:41.945Z,17.98
2022-11-18T18:34:09.258Z,16.98
2022-11-18T18:36:36.522Z,17.38
2022-11-18T18:39:04.429Z,16.58
2022-11-18T18:41:32.493Z,17.52
2022-11-18T18:44:00.635Z,16.30
2022-11-18T18:46:29.396Z,16.48
2022-11-18T18:49:20.371Z,15.15
2022-11-18T18:51:49.399Z,18.98
2022-11-18T18:54:20.417Z,16.08
2022-11-18T18:56:47.952Z,14.63
2022-11-18T18:59:15.147Z,17.80
2022-11-18T19:01:42.772Z,13.43
2022-11-18T19:04:13.498Z,12.35
2022-11-18T19:06:53.638Z,11.73
2022-11-18T19:09:25.618Z,11.38
2022-11-18T19:12:11.978Z,13.02
2022-11-18T19:14:39.676Z,12.50
2022-11-18T19:17:11.251Z,14.32
2022-11-18T19:20:00.092Z,15.57
2022-11-18T19:22:31.816Z,15.52
2022-11-18T19:25:00.565Z,14.98
2022-11-18T19:27:28.768Z,15.80
2022-11-18T19:29:56.121Z,22.95
2022-11-18T19:32:23.472Z,19.40
2022-11-18T19:34:50.689Z,20.38
2022-11-18T19:37:17.889Z,18.98
2022-11-18T19:39:45.193Z,17.98
2022-11-18T19:42:12.486Z,16.17
2022-11-18T19:44:39.956Z,14.77
2022-11-18T19:47:07.209Z,18.48
2022-11-18T19:49:34.422Z,19.65
2022-11-18T19:52:02.463Z,17.25
2022-11-18T19:54:29.656Z,19.67
2022-11-18T19:56:57.389Z,21.88
2022-11-18T19:59:24.554Z,21.92
2022-11-18T20:01:51.964Z,23.13
2022-11-18T20:04:19.209Z,16.50
2022-11-18T20:06:46.636Z,17.77
2022-11-18T20:09:14.142Z,16.35
2022-11-18T20:11:43.510Z,16.15
2022-11-18T20:14:12.452Z,16.60
2022-11-18T20:16:40.533Z,17.10
2022-11-18T20:19:10.773Z,17.52
2022-11-18T20:21:39.276Z,16.05
2022-11-18T20:24:08.269Z,18.27
2022-11-18T20:26:38.715Z,18.00
2022-11-18T20:29:08.089Z,16.45
2022-11-18T20:31:37.189Z,15.68
2022-11-18T20:34:06.155Z,13.52
2022-11-18T20:36:36.415Z,11.85
2022-11-18T20:39:14.915Z,11.68
2022-11-18T20:41:43.269Z,10.93
2022-11-18T20:44:10.436Z,11.48
2022-11-18T20:46:37.657Z,10.10
2022-11-18T20:49:04.792Z,8.60
2022-11-18T20:51:32.423Z,9.65
2022-11-18T20:54:01.097Z,9.52
2022-11-18T20:56:28.457Z,9.00
2022-11-18T20:58:58.539Z,7.95
2022-11-18T21:01:29.492Z,7.10
2022-11-18T21:04:00.440Z,7.82
2022-11-18T21:06:31.077Z,7.25
2022-11-18T21:09:05.461Z,7.10
2022-11-18T21:11:36.940Z,8.07
2022-11-18T21:14:24.903Z,7.78
2022-11-18T21:17:01.770Z,9.32
2022-11-18T21:19:29.701Z,8.40
2022-11-18T21:21:57.351Z,6.95
2022-11-18T21:24:29.535Z,7.35
2022-11-18T21:26:58.040Z,6.60
2022-11-18T21:29:29.867Z,7.53
2022-11-18T21:32:00.467Z,8.48
2022-11-18T21:34:28.307Z,7.68
2022-11-18T21:36:55.623Z,7.72
2022-11-18T21:39:24.895Z,7.80
2022-11-18T21:41:56.218Z,8.65
2022-11-18T21:44:25.701Z,8.48
2022-11-18T21:46:52.987Z,8.57
2022-11-18T21:49:20.469Z,8.77
2022-11-18T21:51:47.839Z,8.55
2022-11-18T21:54:15.911Z,8.57
2022-11-18T21:56:43.391Z,8.77
2022-11-18T21:59:10.538Z,9.23
2022-11-18T22:01:37.735Z,9.88
2022-11-18T22:04:05.961Z,8.82
2022-11-18T22:06:34.527Z,9.10
2022-11-18T22:09:04.000Z,8.80
2022-11-18T22:11:31.569Z,8.65
2022-11-18T22:13:58.949Z,7.78
2022-11-18T22:16:26.978Z,8.75
2022-11-18T22:19:01.375Z,9.30
2022-11-18T22:21:32.322Z,10.15
2022-11-18T22:24:01.186Z,8.90
2022-11-18T22:26:29.402Z,10.32
2022-11-18T22:28:58.246Z,9.57
2022-11-18T22:31:28.424Z,9.13
2022-11-18T22:33:57.333Z,9.00
2022-11-18T22:36:27.398Z,7.72
2022-11-18T22:38:55.955Z,6.85
2022-11-18T22:41:45.403Z,6.40
2022-11-18T22:44:16.514Z,5.68
2022-11-18T22:46:45.683Z,5.80
2022-11-18T22:49:13.694Z,6.00
2022-11-18T22:51:41.447Z,5.00
2022-11-18T22:56:57.275Z,6.78
2022-11-18T22:59:24.978Z,5.43
2022-11-18T23:01:52.804Z,6.35
2022-11-18T23:04:20.487Z,6.00
2022-11-18T23:06:49.477Z,5.10
2022-11-18T23:09:17.242Z,5.07
2022-11-18T23:12:03.643Z,5.10
2022-11-18T23:17:00.032Z,5.28
2022-11-18T23:19:27.239Z,5.22
2022-11-18T23:21:54.387Z,4.97
2022-11-18T23:24:21.844Z,6.28
2022-11-18T23:26:49.176Z,6.20
2022-11-18T23:29:17.035Z,5.60
2022-11-18T23:31:45.228Z,6.18
2022-11-18T23:34:15.647Z,6.07
2022-11-18T23:36:43.583Z,6.60
2022-11-18T23:39:11.187Z,7.28
2022-11-18T23:41:39.773Z,7.55
2022-11-18T23:44:07.191Z,7.32
2022-11-18T23:46:34.578Z,7.88
2022-11-18T23:49:01.829Z,7.68
2022-11-18T23:51:28.952Z,8.27
2022-11-18T23:53:57.417Z,8.18
2022-11-18T23:56:27.523Z,8.07
2022-11-18T23:58:56.875Z,8.95
